sensor_id;sensor_type;location;lat;lon;timestamp;P1;durP1;ratioP1;P2;durP2;ratioP2
1206;SDS011;593;53.184;8.216;2023-02-26T00:01:34;2.30;;;0.40;;
1206;SDS011;593;53.184;8.216;2023-02-26T00:04:01;0.70;;;0.50;;
1206;SDS011;593;53.184;8.216;2023-02-26T00:06:28;0.98;;;0.50;;
1206;SDS011;593;53.184;8.216;2023-02-26T00:08:56;3.58;;;0.60;;
1206;SDS011;593;53.184;8.216;2023-02-26T00:11:21;0.63;;;0.60;;
1206;SDS011;593;53.184;8.216;2023-02-26T00:13:47;1.00;;;0.40;;
1206;SDS011;593;53.184;8.216;2023-02-26T00:16:26;3.30;;;0.50;;
1206;SDS011;593;53.184;8.216;2023-02-26T00:18:58;1.00;;;0.40;;
1206;SDS011;593;53.184;8.216;2023-02-26T00:21:26;0.52;;;0.40;;
1206;SDS011;593;53.184;8.216;2023-02-26T00:23:52;0.70;;;0.40;;
1206;SDS011;593;53.184;8.216;2023-02-26T00:26:18;1.00;;;0.40;;
1206;SDS011;593;53.184;8.216;2023-02-26T00:28:44;0.63;;;0.52;;
1206;SDS011;593;53.184;8.216;2023-02-26T00:31:10;0.80;;;0.40;;
1206;SDS011;593;53.184;8.216;2023-02-26T00:33:36;0.70;;;0.50;;
1206;SDS011;593;53.184;8.216;2023-02-26T00:36:21;2.70;;;0.40;;
1206;SDS011;593;53.184;8.216;2023-02-26T00:41:55;0.95;;;0.40;;
1206;SDS011;593;53.184;8.216;2023-02-26T00:44:21;1.53;;;0.40;;
1206;SDS011;593;53.184;8.216;2023-02-26T00:46:55;0.57;;;0.40;;
1206;SDS011;593;53.184;8.216;2023-02-26T00:49:48;1.02;;;0.68;;
1206;SDS011;593;53.184;8.216;2023-02-26T00:55:23;2.65;;;0.45;;
1206;SDS011;593;53.184;8.216;2023-02-26T00:57:49;0.70;;;0.70;;
1206;SDS011;593;53.184;8.216;2023-02-26T01:00:14;0.60;;;0.40;;
1206;SDS011;593;53.184;8.216;2023-02-26T01:02:40;1.45;;;0.60;;
1206;SDS011;593;53.184;8.216;2023-02-26T01:05:06;2.23;;;0.50;;
1206;SDS011;593;53.184;8.216;2023-02-26T01:07:55;1.90;;;0.40;;
1206;SDS011;593;53.184;8.216;2023-02-26T01:10:25;0.70;;;0.38;;
1206;SDS011;593;53.184;8.216;2023-02-26T01:12:50;0.60;;;0.50;;
1206;SDS011;593;53.184;8.216;2023-02-26T01:15:16;1.77;;;0.30;;
1206;SDS011;593;53.184;8.216;2023-02-26T01:22:54;0.60;;;0.52;;
1206;SDS011;593;53.184;8.216;2023-02-26T01:27:49;1.97;;;0.50;;
1206;SDS011;593;53.184;8.216;2023-02-26T01:30:15;3.87;;;0.50;;
1206;SDS011;593;53.184;8.216;2023-02-26T01:38:03;1.02;;;0.40;;
1206;SDS011;593;53.184;8.216;2023-02-26T01:40:45;1.08;;;0.50;;
1206;SDS011;593;53.184;8.216;2023-02-26T01:43:17;2.45;;;0.50;;
1206;SDS011;593;53.184;8.216;2023-02-26T01:51:13;1.60;;;0.40;;
1206;SDS011;593;53.184;8.216;2023-02-26T01:53:38;3.20;;;0.50;;
1206;SDS011;593;53.184;8.216;2023-02-26T01:56:05;4.13;;;0.40;;
1206;SDS011;593;53.184;8.216;2023-02-26T01:58:37;2.33;;;0.73;;
1206;SDS011;593;53.184;8.216;2023-02-26T02:01:03;3.17;;;0.55;;
1206;SDS011;593;53.184;8.216;2023-02-26T02:03:31;0.50;;;0.50;;
1206;SDS011;593;53.184;8.216;2023-02-26T02:06:00;0.80;;;0.50;;
1206;SDS011;593;53.184;8.216;2023-02-26T02:08:31;1.00;;;0.40;;
1206;SDS011;593;53.184;8.216;2023-02-26T02:10:59;0.60;;;0.40;;
1206;SDS011;593;53.184;8.216;2023-02-26T02:16:16;0.50;;;0.40;;
1206;SDS011;593;53.184;8.216;2023-02-26T02:18:48;0.90;;;0.50;;
1206;SDS011;593;53.184;8.216;2023-02-26T02:24:10;1.27;;;0.40;;
1206;SDS011;593;53.184;8.216;2023-02-26T02:26:43;0.93;;;0.40;;
1206;SDS011;593;53.184;8.216;2023-02-26T02:32:09;3.25;;;0.60;;
1206;SDS011;593;53.184;8.216;2023-02-26T02:37:21;1.58;;;0.40;;
1206;SDS011;593;53.184;8.216;2023-02-26T02:39:55;2.47;;;0.90;;
1206;SDS011;593;53.184;8.216;2023-02-26T02:42:28;0.95;;;0.40;;
1206;SDS011;593;53.184;8.216;2023-02-26T02:45:04;1.35;;;0.70;;
1206;SDS011;593;53.184;8.216;2023-02-26T02:47:35;0.82;;;0.47;;
1206;SDS011;593;53.184;8.216;2023-02-26T02:50:06;0.60;;;0.50;;
1206;SDS011;593;53.184;8.216;2023-02-26T02:52:42;0.98;;;0.50;;
1206;SDS011;593;53.184;8.216;2023-02-26T02:55:56;2.58;;;0.60;;
1206;SDS011;593;53.184;8.216;2023-02-26T02:58:08;2.78;;;0.70;;
1206;SDS011;593;53.184;8.216;2023-02-26T03:00:38;0.90;;;0.50;;
1206;SDS011;593;53.184;8.216;2023-02-26T03:03:30;1.65;;;0.52;;
1206;SDS011;593;53.184;8.216;2023-02-26T03:06:01;0.50;;;0.40;;
1206;SDS011;593;53.184;8.216;2023-02-26T03:08:28;1.17;;;0.50;;
1206;SDS011;593;53.184;8.216;2023-02-26T03:10:58;1.30;;;0.40;;
1206;SDS011;593;53.184;8.216;2023-02-26T03:13:23;1.70;;;0.50;;
1206;SDS011;593;53.184;8.216;2023-02-26T03:19:21;2.97;;;0.63;;
1206;SDS011;593;53.184;8.216;2023-02-26T03:24:03;2.17;;;0.50;;
1206;SDS011;593;53.184;8.216;2023-02-26T03:26:45;0.50;;;0.47;;
1206;SDS011;593;53.184;8.216;2023-02-26T03:29:20;0.63;;;0.63;;
1206;SDS011;593;53.184;8.216;2023-02-26T03:31:53;1.50;;;0.40;;
1206;SDS011;593;53.184;8.216;2023-02-26T03:34:31;1.58;;;0.60;;
1206;SDS011;593;53.184;8.216;2023-02-26T03:37:05;1.13;;;0.40;;
1206;SDS011;593;53.184;8.216;2023-02-26T03:39:38;1.80;;;0.50;;
1206;SDS011;593;53.184;8.216;2023-02-26T03:42:14;2.17;;;0.50;;
1206;SDS011;593;53.184;8.216;2023-02-26T03:44:53;0.70;;;0.40;;
1206;SDS011;593;53.184;8.216;2023-02-26T03:47:22;0.93;;;0.40;;
1206;SDS011;593;53.184;8.216;2023-02-26T03:52:27;2.15;;;0.40;;
1206;SDS011;593;53.184;8.216;2023-02-26T03:55:05;3.08;;;0.50;;
1206;SDS011;593;53.184;8.216;2023-02-26T03:57:35;2.28;;;0.60;;
1206;SDS011;593;53.184;8.216;2023-02-26T04:00:01;1.23;;;0.60;;
1206;SDS011;593;53.184;8.216;2023-02-26T04:02:28;2.63;;;0.40;;
1206;SDS011;593;53.184;8.216;2023-02-26T04:07:54;0.93;;;0.40;;
1206;SDS011;593;53.184;8.216;2023-02-26T04:10:24;8.07;;;0.60;;
1206;SDS011;593;53.184;8.216;2023-02-26T04:12:58;1.42;;;0.50;;
1206;SDS011;593;53.184;8.216;2023-02-26T04:15:24;2.50;;;0.55;;
1206;SDS011;593;53.184;8.216;2023-02-26T04:17:50;5.80;;;0.50;;
1206;SDS011;593;53.184;8.216;2023-02-26T04:20:15;0.83;;;0.50;;
1206;SDS011;593;53.184;8.216;2023-02-26T04:22:40;0.83;;;0.50;;
1206;SDS011;593;53.184;8.216;2023-02-26T04:25:06;2.80;;;0.67;;
1206;SDS011;593;53.184;8.216;2023-02-26T04:27:31;1.37;;;0.50;;
1206;SDS011;593;53.184;8.216;2023-02-26T04:29:56;5.60;;;0.43;;
1206;SDS011;593;53.184;8.216;2023-02-26T04:32:22;0.97;;;0.30;;
1206;SDS011;593;53.184;8.216;2023-02-26T04:34:47;2.73;;;0.43;;
1206;SDS011;593;53.184;8.216;2023-02-26T04:37:12;2.67;;;0.57;;
1206;SDS011;593;53.184;8.216;2023-02-26T04:39:38;2.90;;;0.67;;
1206;SDS011;593;53.184;8.216;2023-02-26T04:42:03;0.77;;;0.40;;
1206;SDS011;593;53.184;8.216;2023-02-26T04:44:29;2.60;;;0.90;;
1206;SDS011;593;53.184;8.216;2023-02-26T04:46:55;0.70;;;0.50;;
1206;SDS011;593;53.184;8.216;2023-02-26T04:49:20;1.83;;;0.73;;
1206;SDS011;593;53.184;8.216;2023-02-26T04:51:46;3.67;;;1.13;;
1206;SDS011;593;53.184;8.216;2023-02-26T04:54:11;2.07;;;0.90;;
1206;SDS011;593;53.184;8.216;2023-02-26T04:56:36;0.90;;;0.80;;
1206;SDS011;593;53.184;8.216;2023-02-26T04:59:02;2.03;;;1.10;;
1206;SDS011;593;53.184;8.216;2023-02-26T05:01:27;1.03;;;0.50;;
1206;SDS011;593;53.184;8.216;2023-02-26T05:03:53;1.03;;;0.60;;
1206;SDS011;593;53.184;8.216;2023-02-26T05:06:18;1.33;;;0.80;;
1206;SDS011;593;53.184;8.216;2023-02-26T05:08:44;1.77;;;0.80;;
1206;SDS011;593;53.184;8.216;2023-02-26T05:11:09;1.80;;;0.83;;
1206;SDS011;593;53.184;8.216;2023-02-26T05:13:35;0.77;;;0.60;;
1206;SDS011;593;53.184;8.216;2023-02-26T05:16:00;1.00;;;0.60;;
1206;SDS011;593;53.184;8.216;2023-02-26T05:18:25;0.70;;;0.47;;
1206;SDS011;593;53.184;8.216;2023-02-26T05:20:52;1.33;;;0.50;;
1206;SDS011;593;53.184;8.216;2023-02-26T05:23:18;5.75;;;0.80;;
1206;SDS011;593;53.184;8.216;2023-02-26T05:25:43;0.90;;;0.50;;
1206;SDS011;593;53.184;8.216;2023-02-26T05:28:08;2.10;;;0.50;;
1206;SDS011;593;53.184;8.216;2023-02-26T05:30:34;2.53;;;0.60;;
1206;SDS011;593;53.184;8.216;2023-02-26T05:32:59;2.57;;;0.90;;
1206;SDS011;593;53.184;8.216;2023-02-26T05:35:25;0.70;;;0.60;;
1206;SDS011;593;53.184;8.216;2023-02-26T05:37:50;0.60;;;0.60;;
1206;SDS011;593;53.184;8.216;2023-02-26T05:40:16;1.43;;;0.60;;
1206;SDS011;593;53.184;8.216;2023-02-26T05:42:41;0.60;;;0.50;;
1206;SDS011;593;53.184;8.216;2023-02-26T05:45:07;0.93;;;0.70;;
1206;SDS011;593;53.184;8.216;2023-02-26T05:47:33;0.93;;;0.60;;
1206;SDS011;593;53.184;8.216;2023-02-26T05:49:59;1.63;;;0.43;;
1206;SDS011;593;53.184;8.216;2023-02-26T05:52:24;0.53;;;0.50;;
1206;SDS011;593;53.184;8.216;2023-02-26T05:54:50;2.67;;;0.87;;
1206;SDS011;593;53.184;8.216;2023-02-26T05:57:15;1.40;;;0.70;;
1206;SDS011;593;53.184;8.216;2023-02-26T05:59:40;1.07;;;0.43;;
1206;SDS011;593;53.184;8.216;2023-02-26T06:02:06;0.87;;;0.70;;
1206;SDS011;593;53.184;8.216;2023-02-26T06:04:31;1.17;;;0.77;;
1206;SDS011;593;53.184;8.216;2023-02-26T06:06:57;0.70;;;0.50;;
1206;SDS011;593;53.184;8.216;2023-02-26T06:09:22;0.60;;;0.40;;
1206;SDS011;593;53.184;8.216;2023-02-26T06:11:48;1.90;;;1.00;;
1206;SDS011;593;53.184;8.216;2023-02-26T06:14:13;1.30;;;0.60;;
1206;SDS011;593;53.184;8.216;2023-02-26T06:16:39;1.00;;;0.47;;
1206;SDS011;593;53.184;8.216;2023-02-26T06:19:04;0.70;;;0.40;;
1206;SDS011;593;53.184;8.216;2023-02-26T06:21:30;0.60;;;0.40;;
1206;SDS011;593;53.184;8.216;2023-02-26T06:23:55;3.07;;;0.60;;
1206;SDS011;593;53.184;8.216;2023-02-26T06:26:20;0.70;;;0.40;;
1206;SDS011;593;53.184;8.216;2023-02-26T06:28:46;1.83;;;0.50;;
1206;SDS011;593;53.184;8.216;2023-02-26T06:31:11;2.97;;;0.83;;
1206;SDS011;593;53.184;8.216;2023-02-26T06:33:36;1.50;;;0.47;;
1206;SDS011;593;53.184;8.216;2023-02-26T06:36:02;0.57;;;0.40;;
1206;SDS011;593;53.184;8.216;2023-02-26T06:38:28;2.00;;;0.57;;
1206;SDS011;593;53.184;8.216;2023-02-26T06:40:53;3.80;;;0.40;;
1206;SDS011;593;53.184;8.216;2023-02-26T06:43:19;0.93;;;0.50;;
1206;SDS011;593;53.184;8.216;2023-02-26T06:45:44;1.10;;;0.40;;
1206;SDS011;593;53.184;8.216;2023-02-26T06:48:10;0.97;;;0.43;;
1206;SDS011;593;53.184;8.216;2023-02-26T06:50:35;1.80;;;0.50;;
1206;SDS011;593;53.184;8.216;2023-02-26T06:53:01;2.73;;;0.70;;
1206;SDS011;593;53.184;8.216;2023-02-26T06:55:26;2.60;;;0.60;;
1206;SDS011;593;53.184;8.216;2023-02-26T06:57:52;0.80;;;0.40;;
1206;SDS011;593;53.184;8.216;2023-02-26T07:00:18;5.13;;;0.43;;
1206;SDS011;593;53.184;8.216;2023-02-26T07:02:44;3.50;;;0.57;;
1206;SDS011;593;53.184;8.216;2023-02-26T07:05:10;1.60;;;0.50;;
1206;SDS011;593;53.184;8.216;2023-02-26T07:07:35;0.60;;;0.50;;
1206;SDS011;593;53.184;8.216;2023-02-26T07:10:00;1.53;;;0.30;;
1206;SDS011;593;53.184;8.216;2023-02-26T07:12:26;0.80;;;0.40;;
1206;SDS011;593;53.184;8.216;2023-02-26T07:14:51;0.70;;;0.50;;
1206;SDS011;593;53.184;8.216;2023-02-26T07:17:16;2.00;;;0.70;;
1206;SDS011;593;53.184;8.216;2023-02-26T07:19:48;1.23;;;0.40;;
1206;SDS011;593;53.184;8.216;2023-02-26T07:22:15;1.80;;;0.40;;
1206;SDS011;593;53.184;8.216;2023-02-26T07:24:42;0.50;;;0.40;;
1206;SDS011;593;53.184;8.216;2023-02-26T07:27:08;0.40;;;0.30;;
1206;SDS011;593;53.184;8.216;2023-02-26T07:29:33;0.50;;;0.40;;
1206;SDS011;593;53.184;8.216;2023-02-26T07:31:59;1.27;;;0.40;;
1206;SDS011;593;53.184;8.216;2023-02-26T07:34:24;2.23;;;0.50;;
1206;SDS011;593;53.184;8.216;2023-02-26T07:36:49;0.80;;;0.60;;
1206;SDS011;593;53.184;8.216;2023-02-26T07:39:15;2.30;;;0.50;;
1206;SDS011;593;53.184;8.216;2023-02-26T07:41:40;2.33;;;0.67;;
1206;SDS011;593;53.184;8.216;2023-02-26T07:44:06;3.67;;;0.50;;
1206;SDS011;593;53.184;8.216;2023-02-26T07:46:31;0.80;;;0.80;;
1206;SDS011;593;53.184;8.216;2023-02-26T07:48:57;0.80;;;0.60;;
1206;SDS011;593;53.184;8.216;2023-02-26T07:51:22;0.67;;;0.50;;
1206;SDS011;593;53.184;8.216;2023-02-26T07:53:47;0.70;;;0.50;;
1206;SDS011;593;53.184;8.216;2023-02-26T07:56:13;2.93;;;0.50;;
1206;SDS011;593;53.184;8.216;2023-02-26T07:58:38;4.43;;;0.83;;
1206;SDS011;593;53.184;8.216;2023-02-26T08:01:03;2.00;;;0.70;;
1206;SDS011;593;53.184;8.216;2023-02-26T08:03:29;0.63;;;0.53;;
1206;SDS011;593;53.184;8.216;2023-02-26T08:05:56;1.17;;;0.88;;
1206;SDS011;593;53.184;8.216;2023-02-26T08:08:24;2.75;;;0.80;;
1206;SDS011;593;53.184;8.216;2023-02-26T08:10:50;1.47;;;1.13;;
1206;SDS011;593;53.184;8.216;2023-02-26T08:13:15;1.73;;;0.60;;
1206;SDS011;593;53.184;8.216;2023-02-26T08:15:40;1.23;;;0.70;;
1206;SDS011;593;53.184;8.216;2023-02-26T08:18:07;1.80;;;0.60;;
1206;SDS011;593;53.184;8.216;2023-02-26T08:20:33;3.70;;;0.60;;
1206;SDS011;593;53.184;8.216;2023-02-26T08:22:59;0.60;;;0.40;;
1206;SDS011;593;53.184;8.216;2023-02-26T08:25:24;1.97;;;0.40;;
1206;SDS011;593;53.184;8.216;2023-02-26T08:27:50;1.90;;;0.60;;
1206;SDS011;593;53.184;8.216;2023-02-26T08:30:15;6.83;;;0.70;;
1206;SDS011;593;53.184;8.216;2023-02-26T08:32:40;0.63;;;0.50;;
1206;SDS011;593;53.184;8.216;2023-02-26T08:35:06;0.90;;;0.53;;
1206;SDS011;593;53.184;8.216;2023-02-26T08:37:32;0.82;;;0.40;;
1206;SDS011;593;53.184;8.216;2023-02-26T08:39:58;5.20;;;0.97;;
1206;SDS011;593;53.184;8.216;2023-02-26T08:42:23;1.57;;;0.57;;
1206;SDS011;593;53.184;8.216;2023-02-26T08:44:48;6.10;;;0.60;;
1206;SDS011;593;53.184;8.216;2023-02-26T08:47:14;0.50;;;0.40;;
1206;SDS011;593;53.184;8.216;2023-02-26T08:49:39;0.70;;;0.40;;
1206;SDS011;593;53.184;8.216;2023-02-26T08:52:05;2.10;;;0.50;;
1206;SDS011;593;53.184;8.216;2023-02-26T08:54:30;0.50;;;0.40;;
1206;SDS011;593;53.184;8.216;2023-02-26T08:56:56;1.03;;;0.50;;
1206;SDS011;593;53.184;8.216;2023-02-26T08:59:22;2.20;;;0.70;;
1206;SDS011;593;53.184;8.216;2023-02-26T09:01:47;1.60;;;0.38;;
1206;SDS011;593;53.184;8.216;2023-02-26T09:04:13;1.40;;;0.40;;
1206;SDS011;593;53.184;8.216;2023-02-26T09:06:38;1.17;;;0.40;;
1206;SDS011;593;53.184;8.216;2023-02-26T09:09:04;3.13;;;0.50;;
1206;SDS011;593;53.184;8.216;2023-02-26T09:11:29;2.90;;;0.57;;
1206;SDS011;593;53.184;8.216;2023-02-26T09:13:56;1.02;;;0.45;;
1206;SDS011;593;53.184;8.216;2023-02-26T09:16:23;0.60;;;0.40;;
1206;SDS011;593;53.184;8.216;2023-02-26T09:18:48;1.17;;;0.40;;
1206;SDS011;593;53.184;8.216;2023-02-26T09:21:14;0.50;;;0.50;;
1206;SDS011;593;53.184;8.216;2023-02-26T09:23:40;2.30;;;0.40;;
1206;SDS011;593;53.184;8.216;2023-02-26T09:26:05;0.50;;;0.40;;
1206;SDS011;593;53.184;8.216;2023-02-26T09:28:32;2.33;;;0.40;;
1206;SDS011;593;53.184;8.216;2023-02-26T09:30:58;0.80;;;0.40;;
1206;SDS011;593;53.184;8.216;2023-02-26T09:33:24;1.10;;;0.50;;
1206;SDS011;593;53.184;8.216;2023-02-26T09:35:49;0.50;;;0.40;;
1206;SDS011;593;53.184;8.216;2023-02-26T09:38:16;0.63;;;0.40;;
1206;SDS011;593;53.184;8.216;2023-02-26T09:40:47;0.40;;;0.30;;
1206;SDS011;593;53.184;8.216;2023-02-26T09:43:39;2.15;;;0.45;;
1206;SDS011;593;53.184;8.216;2023-02-26T09:46:39;1.17;;;0.35;;
1206;SDS011;593;53.184;8.216;2023-02-26T09:52:40;1.25;;;0.30;;
1206;SDS011;593;53.184;8.216;2023-02-26T09:55:57;0.57;;;0.40;;
1206;SDS011;593;53.184;8.216;2023-02-26T09:58:05;1.80;;;0.38;;
1206;SDS011;593;53.184;8.216;2023-02-26T10:08:59;0.68;;;0.40;;
1206;SDS011;593;53.184;8.216;2023-02-26T10:11:55;1.55;;;0.55;;
1206;SDS011;593;53.184;8.216;2023-02-26T10:14:27;0.82;;;0.40;;
1206;SDS011;593;53.184;8.216;2023-02-26T10:17:01;0.93;;;0.45;;
1206;SDS011;593;53.184;8.216;2023-02-26T10:19:32;0.85;;;0.50;;
1206;SDS011;593;53.184;8.216;2023-02-26T10:24:39;0.60;;;0.50;;
1206;SDS011;593;53.184;8.216;2023-02-26T10:27:11;1.55;;;0.40;;
1206;SDS011;593;53.184;8.216;2023-02-26T10:35:28;0.80;;;0.40;;
1206;SDS011;593;53.184;8.216;2023-02-26T10:38:04;1.48;;;0.50;;
1206;SDS011;593;53.184;8.216;2023-02-26T10:49:01;3.45;;;0.40;;
1206;SDS011;593;53.184;8.216;2023-02-26T10:51:49;1.08;;;0.40;;
1206;SDS011;593;53.184;8.216;2023-02-26T10:56:47;0.60;;;0.50;;
1206;SDS011;593;53.184;8.216;2023-02-26T10:59:13;0.70;;;0.50;;
1206;SDS011;593;53.184;8.216;2023-02-26T11:01:39;0.70;;;0.60;;
1206;SDS011;593;53.184;8.216;2023-02-26T11:04:10;1.57;;;0.40;;
1206;SDS011;593;53.184;8.216;2023-02-26T11:06:40;0.80;;;0.50;;
1206;SDS011;593;53.184;8.216;2023-02-26T11:09:24;0.50;;;0.40;;
1206;SDS011;593;53.184;8.216;2023-02-26T11:14:19;0.50;;;0.40;;
1206;SDS011;593;53.184;8.216;2023-02-26T11:16:48;0.68;;;0.30;;
1206;SDS011;593;53.184;8.216;2023-02-26T11:19:16;1.23;;;0.50;;
1206;SDS011;593;53.184;8.216;2023-02-26T11:21:44;0.70;;;0.50;;
1206;SDS011;593;53.184;8.216;2023-02-26T11:26:50;1.30;;;0.40;;
1206;SDS011;593;53.184;8.216;2023-02-26T11:29:21;1.60;;;0.43;;
1206;SDS011;593;53.184;8.216;2023-02-26T11:31:54;0.50;;;0.40;;
1206;SDS011;593;53.184;8.216;2023-02-26T11:34:25;0.40;;;0.30;;
1206;SDS011;593;53.184;8.216;2023-02-26T11:36:51;0.50;;;0.40;;
1206;SDS011;593;53.184;8.216;2023-02-26T11:41:47;0.50;;;0.40;;
1206;SDS011;593;53.184;8.216;2023-02-26T11:44:14;2.03;;;0.50;;
1206;SDS011;593;53.184;8.216;2023-02-26T11:46:49;0.50;;;0.40;;
1206;SDS011;593;53.184;8.216;2023-02-26T11:49:17;1.50;;;0.47;;
1206;SDS011;593;53.184;8.216;2023-02-26T11:51:47;0.60;;;0.40;;
1206;SDS011;593;53.184;8.216;2023-02-26T11:54:26;1.25;;;0.35;;
1206;SDS011;593;53.184;8.216;2023-02-26T11:56:59;0.80;;;0.32;;
1206;SDS011;593;53.184;8.216;2023-02-26T11:59:30;2.83;;;1.58;;
1206;SDS011;593;53.184;8.216;2023-02-26T12:02:00;2.50;;;1.20;;
1206;SDS011;593;53.184;8.216;2023-02-26T12:04:37;0.93;;;0.50;;
1206;SDS011;593;53.184;8.216;2023-02-26T12:07:07;0.60;;;0.40;;
1206;SDS011;593;53.184;8.216;2023-02-26T12:09:38;1.63;;;0.50;;
1206;SDS011;593;53.184;8.216;2023-02-26T12:15:01;0.65;;;0.50;;
1206;SDS011;593;53.184;8.216;2023-02-26T12:20:18;1.25;;;0.40;;
1206;SDS011;593;53.184;8.216;2023-02-26T12:22:54;0.50;;;0.50;;
1206;SDS011;593;53.184;8.216;2023-02-26T12:25:31;0.85;;;0.40;;
1206;SDS011;593;53.184;8.216;2023-02-26T12:33:33;1.65;;;1.40;;
1206;SDS011;593;53.184;8.216;2023-02-26T12:41:50;0.90;;;0.50;;
1206;SDS011;593;53.184;8.216;2023-02-26T12:47:24;0.50;;;0.40;;
1206;SDS011;593;53.184;8.216;2023-02-26T12:53:04;0.82;;;0.40;;
1206;SDS011;593;53.184;8.216;2023-02-26T12:55:53;2.05;;;0.43;;
1206;SDS011;593;53.184;8.216;2023-02-26T12:58:40;0.50;;;0.30;;
1206;SDS011;593;53.184;8.216;2023-02-26T13:01:30;2.15;;;0.40;;
1206;SDS011;593;53.184;8.216;2023-02-26T13:09:28;2.35;;;0.52;;
1206;SDS011;593;53.184;8.216;2023-02-26T13:20:03;2.15;;;0.50;;
1206;SDS011;593;53.184;8.216;2023-02-26T13:22:44;1.55;;;0.50;;
1206;SDS011;593;53.184;8.216;2023-02-26T13:28:01;1.95;;;0.47;;
1206;SDS011;593;53.184;8.216;2023-02-26T13:30:44;0.95;;;0.50;;
1206;SDS011;593;53.184;8.216;2023-02-26T13:33:18;1.08;;;0.50;;
1206;SDS011;593;53.184;8.216;2023-02-26T13:35:47;0.70;;;0.43;;
1206;SDS011;593;53.184;8.216;2023-02-26T13:38:51;0.90;;;0.40;;
1206;SDS011;593;53.184;8.216;2023-02-26T13:52:51;0.50;;;0.40;;
1206;SDS011;593;53.184;8.216;2023-02-26T14:03:40;1.40;;;0.60;;
1206;SDS011;593;53.184;8.216;2023-02-26T14:14:36;1.83;;;0.45;;
1206;SDS011;593;53.184;8.216;2023-02-26T14:17:34;1.45;;;0.40;;
1206;SDS011;593;53.184;8.216;2023-02-26T14:23:13;2.25;;;0.35;;
1206;SDS011;593;53.184;8.216;2023-02-26T14:25:50;0.82;;;0.40;;
1206;SDS011;593;53.184;8.216;2023-02-26T14:30:50;0.80;;;0.40;;
1206;SDS011;593;53.184;8.216;2023-02-26T14:33:18;0.60;;;0.60;;
1206;SDS011;593;53.184;8.216;2023-02-26T14:35:51;1.02;;;0.63;;
1206;SDS011;593;53.184;8.216;2023-02-26T14:38:25;1.58;;;0.60;;
1206;SDS011;593;53.184;8.216;2023-02-26T14:40:59;1.33;;;0.50;;
1206;SDS011;593;53.184;8.216;2023-02-26T14:43:39;1.90;;;0.60;;
1206;SDS011;593;53.184;8.216;2023-02-26T14:46:15;0.80;;;0.70;;
1206;SDS011;593;53.184;8.216;2023-02-26T14:48:41;0.50;;;0.50;;
1206;SDS011;593;53.184;8.216;2023-02-26T14:56:39;3.70;;;0.70;;
1206;SDS011;593;53.184;8.216;2023-02-26T14:59:23;1.38;;;0.40;;
1206;SDS011;593;53.184;8.216;2023-02-26T15:02:19;1.30;;;0.50;;
1206;SDS011;593;53.184;8.216;2023-02-26T15:13:15;2.08;;;0.60;;
1206;SDS011;593;53.184;8.216;2023-02-26T15:16:04;1.27;;;0.60;;
1206;SDS011;593;53.184;8.216;2023-02-26T15:24:06;0.60;;;0.40;;
1206;SDS011;593;53.184;8.216;2023-02-26T15:26:36;0.65;;;0.50;;
1206;SDS011;593;53.184;8.216;2023-02-26T15:29:09;1.02;;;0.50;;
1206;SDS011;593;53.184;8.216;2023-02-26T15:31:45;0.85;;;0.60;;
1206;SDS011;593;53.184;8.216;2023-02-26T15:34:18;0.90;;;0.50;;
1206;SDS011;593;53.184;8.216;2023-02-26T15:36:44;0.93;;;0.50;;
1206;SDS011;593;53.184;8.216;2023-02-26T15:39:13;0.80;;;0.60;;
1206;SDS011;593;53.184;8.216;2023-02-26T15:41:41;0.50;;;0.40;;
1206;SDS011;593;53.184;8.216;2023-02-26T15:44:08;0.77;;;0.50;;
1206;SDS011;593;53.184;8.216;2023-02-26T15:46:42;0.52;;;0.50;;
1206;SDS011;593;53.184;8.216;2023-02-26T15:49:19;0.50;;;0.40;;
1206;SDS011;593;53.184;8.216;2023-02-26T15:52:19;0.80;;;0.40;;
1206;SDS011;593;53.184;8.216;2023-02-26T15:54:48;1.65;;;0.50;;
1206;SDS011;593;53.184;8.216;2023-02-26T15:57:19;1.75;;;0.52;;
1206;SDS011;593;53.184;8.216;2023-02-26T15:59:49;0.50;;;0.40;;
1206;SDS011;593;53.184;8.216;2023-02-26T16:02:26;1.55;;;0.40;;
1206;SDS011;593;53.184;8.216;2023-02-26T16:04:54;0.85;;;0.50;;
1206;SDS011;593;53.184;8.216;2023-02-26T16:07:19;0.60;;;0.40;;
1206;SDS011;593;53.184;8.216;2023-02-26T16:09:46;1.20;;;0.50;;
1206;SDS011;593;53.184;8.216;2023-02-26T16:14:49;0.50;;;0.40;;
1206;SDS011;593;53.184;8.216;2023-02-26T16:17:23;2.30;;;0.73;;
1206;SDS011;593;53.184;8.216;2023-02-26T16:19:50;1.15;;;0.60;;
1206;SDS011;593;53.184;8.216;2023-02-26T16:22:31;1.55;;;0.68;;
1206;SDS011;593;53.184;8.216;2023-02-26T16:28:18;1.20;;;1.10;;
1206;SDS011;593;53.184;8.216;2023-02-26T16:30:47;1.45;;;1.13;;
1206;SDS011;593;53.184;8.216;2023-02-26T16:33:16;1.15;;;0.60;;
1206;SDS011;593;53.184;8.216;2023-02-26T16:35:46;2.78;;;0.85;;
1206;SDS011;593;53.184;8.216;2023-02-26T16:40:44;1.08;;;0.60;;
1206;SDS011;593;53.184;8.216;2023-02-26T16:45:48;1.73;;;0.93;;
1206;SDS011;593;53.184;8.216;2023-02-26T16:48:22;7.05;;;0.80;;
1206;SDS011;593;53.184;8.216;2023-02-26T16:50:57;1.55;;;0.60;;
1206;SDS011;593;53.184;8.216;2023-02-26T16:53:36;2.80;;;1.15;;
1206;SDS011;593;53.184;8.216;2023-02-26T16:56:09;1.33;;;0.70;;
1206;SDS011;593;53.184;8.216;2023-02-26T16:58:40;1.20;;;0.60;;
1206;SDS011;593;53.184;8.216;2023-02-26T17:01:11;5.63;;;1.00;;
1206;SDS011;593;53.184;8.216;2023-02-26T17:03:40;1.95;;;0.70;;
1206;SDS011;593;53.184;8.216;2023-02-26T17:06:09;1.35;;;0.70;;
1206;SDS011;593;53.184;8.216;2023-02-26T17:08:45;1.42;;;0.80;;
1206;SDS011;593;53.184;8.216;2023-02-26T17:16:47;1.70;;;0.77;;
1206;SDS011;593;53.184;8.216;2023-02-26T17:19:13;1.33;;;1.13;;
1206;SDS011;593;53.184;8.216;2023-02-26T17:21:44;2.40;;;0.93;;
1206;SDS011;593;53.184;8.216;2023-02-26T17:24:13;0.90;;;0.90;;
1206;SDS011;593;53.184;8.216;2023-02-26T17:26:41;2.35;;;1.10;;
1206;SDS011;593;53.184;8.216;2023-02-26T17:29:10;1.33;;;1.20;;
1206;SDS011;593;53.184;8.216;2023-02-26T17:31:43;2.40;;;1.63;;
1206;SDS011;593;53.184;8.216;2023-02-26T17:34:09;1.88;;;0.93;;
1206;SDS011;593;53.184;8.216;2023-02-26T17:36:35;2.00;;;1.13;;
1206;SDS011;593;53.184;8.216;2023-02-26T17:39:01;2.00;;;1.00;;
1206;SDS011;593;53.184;8.216;2023-02-26T17:41:26;1.43;;;1.33;;
1206;SDS011;593;53.184;8.216;2023-02-26T17:43:54;2.40;;;1.27;;
1206;SDS011;593;53.184;8.216;2023-02-26T17:46:19;1.40;;;1.30;;
1206;SDS011;593;53.184;8.216;2023-02-26T17:48:45;1.93;;;1.40;;
1206;SDS011;593;53.184;8.216;2023-02-26T17:51:10;3.70;;;2.23;;
1206;SDS011;593;53.184;8.216;2023-02-26T17:53:36;2.53;;;1.73;;
1206;SDS011;593;53.184;8.216;2023-02-26T17:56:08;1.70;;;1.33;;
1206;SDS011;593;53.184;8.216;2023-02-26T17:58:35;2.25;;;1.63;;
1206;SDS011;593;53.184;8.216;2023-02-26T18:01:01;2.50;;;1.90;;
1206;SDS011;593;53.184;8.216;2023-02-26T18:03:28;5.47;;;2.17;;
1206;SDS011;593;53.184;8.216;2023-02-26T18:05:54;5.30;;;1.97;;
1206;SDS011;593;53.184;8.216;2023-02-26T18:08:23;5.05;;;2.42;;
1206;SDS011;593;53.184;8.216;2023-02-26T18:10:51;2.90;;;2.00;;
1206;SDS011;593;53.184;8.216;2023-02-26T18:13:17;3.50;;;2.30;;
1206;SDS011;593;53.184;8.216;2023-02-26T18:15:42;5.77;;;2.50;;
1206;SDS011;593;53.184;8.216;2023-02-26T18:18:08;5.73;;;2.60;;
1206;SDS011;593;53.184;8.216;2023-02-26T18:20:36;2.22;;;2.03;;
1206;SDS011;593;53.184;8.216;2023-02-26T18:23:02;3.33;;;3.03;;
1206;SDS011;593;53.184;8.216;2023-02-26T18:25:29;4.18;;;3.25;;
1206;SDS011;593;53.184;8.216;2023-02-26T18:27:54;4.87;;;3.13;;
1206;SDS011;593;53.184;8.216;2023-02-26T18:30:26;3.92;;;2.97;;
1206;SDS011;593;53.184;8.216;2023-02-26T18:32:53;5.57;;;2.47;;
1206;SDS011;593;53.184;8.216;2023-02-26T18:35:19;8.07;;;3.08;;
1206;SDS011;593;53.184;8.216;2023-02-26T18:37:45;6.07;;;2.80;;
1206;SDS011;593;53.184;8.216;2023-02-26T18:40:15;4.50;;;3.07;;
1206;SDS011;593;53.184;8.216;2023-02-26T18:42:42;3.28;;;2.95;;
1206;SDS011;593;53.184;8.216;2023-02-26T18:45:08;6.03;;;2.80;;
1206;SDS011;593;53.184;8.216;2023-02-26T18:47:35;3.90;;;3.60;;
1206;SDS011;593;53.184;8.216;2023-02-26T18:50:00;3.03;;;2.60;;
1206;SDS011;593;53.184;8.216;2023-02-26T18:52:26;5.23;;;3.00;;
1206;SDS011;593;53.184;8.216;2023-02-26T18:54:51;3.57;;;2.37;;
1206;SDS011;593;53.184;8.216;2023-02-26T18:57:16;5.43;;;2.83;;
1206;SDS011;593;53.184;8.216;2023-02-26T18:59:42;4.00;;;2.47;;